Time;durP1;ratioP1;P1;durP2;ratioP2;P2;SDS_P1;SDS_P2;PMS_P1;PMS_P2;Temp;Humidity;BMP_temperature;BMP_pressure;BME280_temperature;BME280_humidity;BME280_pressure;Samples;Min_cycle;Max_cycle;Signal;HPM_P1;HPM_P2
2022/01/20 00:00:43;;;;;;;32.90;4.10;;;4.60;99.90;;;;;;4980040;28;20212;-79
2022/01/20 00:03:16;;;;;;;34.17;6.43;;;4.70;99.90;;;;;;4997265;28;20628;-80
2022/01/20 00:27:36;;;;;;;31.27;5.63;;;4.70;99.90;;;;;;4999665;28;20177;-80
2022/01/20 00:32:47;;;;;;;29.40;5.10;;;4.70;99.90;;;;;;4999822;28;20177;-79
2022/01/20 00:35:20;;;;;;;24.23;4.57;;;4.80;99.90;;;;;;4982435;28;20177;-79
2022/01/20 00:37:47;;;;;;;26.17;5.23;;;4.80;99.90;;;;;;5000217;28;20157;-79
2022/01/20 00:40:13;;;;;;;20.67;4.30;;;4.80;99.90;;;;;;4999385;28;20189;-80
2022/01/20 00:42:39;;;;;;;22.90;4.60;;;4.70;99.90;;;;;;4999603;28;20197;-79
2022/01/20 00:45:05;;;;;;;28.97;4.57;;;4.70;99.90;;;;;;4982335;28;20200;-79
2022/01/20 00:47:31;;;;;;;25.27;4.70;;;4.80;99.90;;;;;;4996971;28;20182;-77
2022/01/20 00:49:56;;;;;;;28.87;4.50;;;4.80;99.90;;;;;;4993981;28;20263;-77
2022/01/20 00:52:22;;;;;;;25.80;4.87;;;4.80;99.90;;;;;;4976344;28;20182;-77
2022/01/20 00:54:48;;;;;;;28.33;5.83;;;4.80;99.90;;;;;;4977580;28;20188;-77
2022/01/20 00:57:13;;;;;;;26.13;5.63;;;4.80;99.90;;;;;;4980604;28;20220;-79
2022/01/20 00:59:39;;;;;;;30.73;5.27;;;4.80;99.90;;;;;;4982286;28;20683;-79
2022/01/20 01:02:08;;;;;;;28.27;5.20;;;4.80;99.90;;;;;;5010988;28;20181;-80
2022/01/20 01:04:35;;;;;;;29.47;5.07;;;4.80;99.90;;;;;;4996585;28;20213;-80
2022/01/20 01:07:45;;;;;;;28.30;4.80;;;4.80;99.90;;;;;;5004012;28;20182;-80
2022/01/20 01:09:50;;;;;;;29.90;4.90;;;4.80;99.90;;;;;;5031686;22;20293;-79
2022/01/20 01:12:23;;;;;;;25.43;4.93;;;4.80;99.90;;;;;;5038375;28;20179;-79
2022/01/20 01:14:52;;;;;;;26.40;5.47;;;4.80;99.90;;;;;;5056108;28;20175;-78
2022/01/20 01:24:45;;;;;;;25.37;6.83;;;4.90;99.90;;;;;;5055483;28;20172;-79
2022/01/20 01:27:13;;;;;;;32.53;6.80;;;5.00;99.90;;;;;;5055119;28;20178;-79
2022/01/20 01:32:37;;;;;;;30.93;7.87;;;5.00;99.90;;;;;;5059626;28;20511;-78
2022/01/20 01:35:07;;;;;;;29.10;8.00;;;4.90;99.90;;;;;;5059898;28;20614;-79
2022/01/20 01:40:04;;;;;;;29.03;8.03;;;4.90;99.90;;;;;;5059826;28;20653;-79
2022/01/20 01:42:37;;;;;;;28.50;8.70;;;4.90;99.90;;;;;;5041166;28;20172;-78
2022/01/20 01:45:14;;;;;;;29.10;7.90;;;4.90;99.90;;;;;;5041085;28;20176;-79
2022/01/20 01:47:40;;;;;;;31.67;7.90;;;5.00;99.90;;;;;;5040791;28;20182;-78
2022/01/20 01:50:07;;;;;;;25.90;7.67;;;5.00;99.90;;;;;;5058738;28;20195;-79
2022/01/20 01:52:33;;;;;;;20.70;6.47;;;5.00;99.90;;;;;;5058618;28;20731;-78
2022/01/20 01:54:58;;;;;;;28.87;5.63;;;5.00;99.90;;;;;;5058598;28;20172;-79
2022/01/20 01:57:25;;;;;;;22.80;5.43;;;5.00;99.90;;;;;;5058319;28;20179;-78
2022/01/20 01:59:51;;;;;;;32.57;6.73;;;5.00;99.90;;;;;;5040522;28;20204;-79
2022/01/20 02:02:17;;;;;;;20.03;5.70;;;5.00;99.90;;;;;;5040453;28;20183;-79
2022/01/20 02:04:43;;;;;;;29.80;6.50;;;5.00;99.90;;;;;;5058746;28;20178;-78
2022/01/20 02:18:13;;;;;;;16.50;4.10;;;5.00;99.90;;;;;;5058545;28;20174;-79
2022/01/20 02:20:39;;;;;;;17.80;4.37;;;5.00;99.90;;;;;;5058096;28;20214;-79
2022/01/20 02:23:05;;;;;;;20.67;5.87;;;4.90;99.90;;;;;;5057823;28;20552;-78
2022/01/20 02:25:33;;;;;;;24.03;5.93;;;5.00;99.90;;;;;;5039864;28;20199;-78
2022/01/20 02:28:04;;;;;;;20.93;4.97;;;5.00;99.90;;;;;;5039362;28;20672;-78
2022/01/20 02:30:30;;;;;;;29.93;4.93;;;5.00;99.90;;;;;;5057704;28;20216;-79
2022/01/20 02:33:07;;;;;;;17.67;4.53;;;4.90;99.90;;;;;;5039477;28;20528;-78
2022/01/20 02:35:43;;;;;;;25.67;5.67;;;4.90;99.90;;;;;;5039972;28;20205;-78
2022/01/20 02:38:15;;;;;;;21.73;7.13;;;5.00;99.90;;;;;;5057388;28;20160;-78
2022/01/20 02:45:54;;;;;;;28.37;8.60;;;5.00;99.90;;;;;;5057671;28;20191;-78
2022/01/20 02:48:20;;;;;;;39.43;8.07;;;5.00;99.90;;;;;;5039129;28;20187;-78
2022/01/20 02:50:46;;;;;;;33.37;7.50;;;5.00;99.90;;;;;;5056865;28;20207;-77
2022/01/20 02:53:11;;;;;;;26.63;5.00;;;5.00;99.90;;;;;;5056887;28;20207;-78
2022/01/20 02:55:37;;;;;;;20.03;5.50;;;5.00;99.90;;;;;;5057381;28;20215;-79
2022/01/20 02:58:03;;;;;;;31.57;4.97;;;5.00;99.90;;;;;;5057101;28;20176;-78
2022/01/20 03:00:29;;;;;;;18.77;4.27;;;5.00;99.90;;;;;;5039086;28;20215;-78
2022/01/20 03:02:56;;;;;;;17.40;4.20;;;4.90;99.90;;;;;;5056693;28;20191;-78
2022/01/20 03:05:22;;;;;;;16.50;3.70;;;4.90;99.90;;;;;;5038865;28;20199;-79
2022/01/20 03:07:47;;;;;;;19.10;3.90;;;4.90;99.90;;;;;;5056663;28;20180;-78
2022/01/20 03:10:13;;;;;;;20.57;3.83;;;4.90;99.90;;;;;;5038470;28;20230;-78
2022/01/20 03:12:39;;;;;;;20.83;3.67;;;4.80;99.90;;;;;;5056446;28;20183;-78
2022/01/20 03:15:05;;;;;;;18.20;2.83;;;4.80;99.90;;;;;;5056267;28;20638;-78
2022/01/20 03:17:32;;;;;;;19.70;3.33;;;4.70;99.90;;;;;;5038200;28;20187;-79
2022/01/20 03:19:58;;;;;;;15.10;3.17;;;4.70;99.90;;;;;;5038635;28;20591;-79
2022/01/20 03:22:23;;;;;;;22.57;3.90;;;4.70;99.90;;;;;;5038305;28;20184;-78
2022/01/20 03:24:49;;;;;;;18.13;2.90;;;4.70;99.90;;;;;;5056339;28;20184;-79
2022/01/20 03:27:15;;;;;;;13.53;2.87;;;4.70;99.90;;;;;;5038519;28;20215;-78
2022/01/20 03:29:40;;;;;;;14.23;3.40;;;4.70;99.90;;;;;;5055691;28;20629;-77
2022/01/20 03:32:06;;;;;;;15.20;3.03;;;4.60;99.90;;;;;;5037315;28;20207;-78
2022/01/20 03:34:32;;;;;;;16.47;2.83;;;4.70;99.90;;;;;;5056099;28;20210;-77
2022/01/20 03:36:59;;;;;;;22.97;3.80;;;4.70;99.90;;;;;;5056222;28;20672;-78
2022/01/20 03:39:25;;;;;;;17.03;2.33;;;4.60;99.90;;;;;;5055545;28;20191;-78
2022/01/20 03:41:51;;;;;;;13.57;2.97;;;4.60;99.90;;;;;;5056264;28;20634;-78
2022/01/20 03:44:16;;;;;;;22.10;3.27;;;4.60;99.90;;;;;;5055542;28;20180;-78
2022/01/20 03:46:42;;;;;;;21.70;2.93;;;4.70;99.90;;;;;;5055541;28;20638;-78
2022/01/20 03:49:13;;;;;;;16.50;3.13;;;4.70;99.90;;;;;;5037271;28;20202;-77
2022/01/20 03:51:38;;;;;;;18.30;3.03;;;4.70;99.90;;;;;;5054781;28;20191;-78
2022/01/20 03:54:05;;;;;;;15.03;3.37;;;4.60;99.90;;;;;;5037606;28;20271;-78
2022/01/20 03:56:31;;;;;;;13.23;2.77;;;4.60;99.90;;;;;;5055593;28;20552;-78
2022/01/20 03:58:57;;;;;;;12.47;2.63;;;4.50;99.90;;;;;;5037250;28;20187;-78
2022/01/20 04:01:22;;;;;;;15.93;2.77;;;4.50;99.90;;;;;;5055096;28;20255;-78
2022/01/20 04:03:48;;;;;;;15.07;3.07;;;4.50;99.90;;;;;;5037121;28;20660;-78
2022/01/20 04:06:15;;;;;;;14.33;2.97;;;4.50;99.90;;;;;;5055292;28;20206;-78
2022/01/20 04:08:46;;;;;;;15.70;2.67;;;4.50;99.90;;;;;;5055150;28;20179;-78
2022/01/20 04:11:14;;;;;;;11.47;3.20;;;4.50;99.90;;;;;;5055066;28;20223;-78
2022/01/20 04:13:40;;;;;;;11.63;2.50;;;4.50;99.90;;;;;;5037195;28;20201;-78
2022/01/20 04:16:32;;;;;;;12.03;2.07;;;4.40;99.90;;;;;;5037587;28;20179;-78
2022/01/20 04:18:59;;;;;;;12.40;1.90;;;4.40;99.90;;;;;;5037618;28;20175;-78
2022/01/20 04:21:30;;;;;;;8.70;1.97;;;4.50;99.90;;;;;;5037193;28;20220;-78
2022/01/20 04:23:58;;;;;;;7.33;1.90;;;4.40;99.90;;;;;;5037075;28;20183;-78
2022/01/20 04:26:24;;;;;;;9.73;2.13;;;4.50;99.90;;;;;;5037286;28;20567;-78
2022/01/20 04:28:53;;;;;;;11.60;2.23;;;4.40;99.90;;;;;;5036998;28;20191;-78
2022/01/20 04:31:20;;;;;;;7.87;2.27;;;4.40;99.90;;;;;;5036583;28;20239;-78
2022/01/20 04:33:46;;;;;;;13.67;2.90;;;4.40;99.90;;;;;;5037181;28;20206;-77
2022/01/20 04:36:11;;;;;;;11.60;2.80;;;4.50;99.90;;;;;;5054688;28;20633;-79
2022/01/20 04:38:37;;;;;;;13.47;2.57;;;4.40;99.90;;;;;;5054648;28;20203;-78
2022/01/20 04:41:03;;;;;;;11.77;2.67;;;4.50;99.90;;;;;;5054852;28;20364;-79
2022/01/20 04:43:28;;;;;;;18.63;2.90;;;4.50;99.90;;;;;;5036886;28;20192;-79
2022/01/20 04:49:03;;;;;;;15.57;2.43;;;4.60;99.90;;;;;;5043589;28;20202;-78
2022/01/20 04:57:20;;;;;;;13.30;2.43;;;4.50;99.90;;;;;;5054814;28;20174;-78
2022/01/20 04:59:47;;;;;;;14.20;2.67;;;4.40;99.90;;;;;;5036377;28;20203;-78
2022/01/20 05:02:13;;;;;;;20.47;3.53;;;4.40;99.90;;;;;;5036482;28;20275;-77
2022/01/20 05:04:39;;;;;;;8.83;1.83;;;4.30;99.90;;;;;;5037156;28;20191;-79
2022/01/20 05:07:07;;;;;;;17.93;3.47;;;4.30;99.90;;;;;;5037010;28;20615;-78
2022/01/20 05:09:33;;;;;;;16.00;3.80;;;4.30;99.90;;;;;;5055065;28;20215;-78
2022/01/20 05:12:11;;;;;;;12.73;2.47;;;4.20;99.90;;;;;;5055420;28;20536;-79
2022/01/20 05:14:37;;;;;;;19.40;2.70;;;4.30;99.90;;;;;;5054460;28;20203;-78
2022/01/20 05:17:03;;;;;;;19.63;3.07;;;4.20;99.90;;;;;;5054297;28;20176;-79
2022/01/20 05:19:31;;;;;;;15.10;2.77;;;4.20;99.90;;;;;;5035704;28;20234;-79
2022/01/20 05:21:57;;;;;;;12.53;2.50;;;4.20;99.90;;;;;;5027146;28;20202;-79
2022/01/20 05:24:23;;;;;;;15.87;2.50;;;4.20;99.90;;;;;;5016565;28;20196;-79
2022/01/20 05:26:50;;;;;;;14.10;2.77;;;4.20;99.90;;;;;;5060753;28;20241;-78
2022/01/20 05:29:20;;;;;;;14.50;2.50;;;4.20;99.90;;;;;;5045748;28;20190;-79
2022/01/20 05:31:46;;;;;;;14.43;2.73;;;4.20;99.90;;;;;;5064717;28;20226;-78
2022/01/20 05:34:12;;;;;;;12.10;2.73;;;4.30;99.90;;;;;;5044468;28;20641;-78
2022/01/20 05:36:38;;;;;;;8.90;2.70;;;4.30;99.90;;;;;;5037257;28;20215;-79
2022/01/20 05:39:04;;;;;;;17.87;2.63;;;4.20;99.90;;;;;;5055000;28;20187;-78
2022/01/20 05:41:30;;;;;;;15.87;2.77;;;4.20;99.90;;;;;;5053629;28;20214;-78
2022/01/20 05:43:56;;;;;;;17.47;3.13;;;4.20;99.90;;;;;;5035918;28;20561;-77
2022/01/20 05:46:25;;;;;;;11.83;2.03;;;4.20;99.90;;;;;;5035829;28;20195;-77
2022/01/20 05:48:51;;;;;;;12.70;2.17;;;4.20;99.90;;;;;;5054460;28;20662;-79
2022/01/20 05:51:18;;;;;;;13.93;2.43;;;4.20;99.90;;;;;;5054393;28;20216;-77
2022/01/20 05:53:44;;;;;;;13.07;2.67;;;4.20;99.90;;;;;;5035731;28;20195;-78
2022/01/20 05:56:09;;;;;;;14.00;2.30;;;4.20;99.90;;;;;;5036176;28;20179;-78
2022/01/20 05:58:36;;;;;;;18.63;2.43;;;4.20;99.90;;;;;;5053957;28;20184;-78
2022/01/20 06:01:06;;;;;;;11.83;2.50;;;4.20;99.90;;;;;;5035719;28;20298;-77
2022/01/20 06:03:37;;;;;;;15.53;2.80;;;4.10;99.90;;;;;;5053233;28;20532;-77
2022/01/20 06:06:08;;;;;;;9.70;2.10;;;4.10;99.90;;;;;;5053437;28;20544;-77
2022/01/20 06:08:35;;;;;;;14.87;2.37;;;4.10;99.90;;;;;;5035635;28;20190;-78
2022/01/20 06:11:01;;;;;;;18.50;2.97;;;4.10;99.90;;;;;;5053957;28;20219;-78
2022/01/20 06:13:27;;;;;;;15.60;2.70;;;4.10;99.90;;;;;;5035865;28;20190;-78
2022/01/20 06:15:53;;;;;;;10.40;2.10;;;4.00;99.90;;;;;;5056439;28;20195;-78
2022/01/20 06:18:19;;;;;;;9.33;2.37;;;4.00;99.90;;;;;;5056976;28;20184;-79
2022/01/20 06:20:45;;;;;;;18.60;3.00;;;4.00;99.90;;;;;;5056735;28;20226;-78
2022/01/20 06:23:12;;;;;;;10.17;2.50;;;4.00;99.90;;;;;;5039021;28;20192;-79
2022/01/20 06:25:37;;;;;;;12.13;2.23;;;4.00;99.90;;;;;;5056783;28;20194;-79
2022/01/20 06:28:04;;;;;;;11.10;2.23;;;3.90;99.90;;;;;;5039008;28;20192;-79
2022/01/20 06:30:31;;;;;;;10.97;1.97;;;4.00;99.90;;;;;;5038887;28;20292;-79
2022/01/20 06:32:57;;;;;;;18.77;3.20;;;3.90;99.90;;;;;;5039869;28;20187;-79
2022/01/20 06:35:23;;;;;;;14.73;3.17;;;3.90;99.90;;;;;;5038842;28;20175;-79
2022/01/20 06:37:48;;;;;;;10.73;2.30;;;3.90;99.90;;;;;;5056577;28;20659;-79
2022/01/20 06:40:14;;;;;;;9.87;2.20;;;3.90;99.90;;;;;;5056849;28;20231;-79
2022/01/20 06:42:40;;;;;;;10.63;2.07;;;3.90;99.90;;;;;;5038636;28;20234;-78
2022/01/20 06:45:09;;;;;;;12.00;2.27;;;3.90;99.90;;;;;;5038301;28;20229;-79
2022/01/20 06:47:34;;;;;;;11.10;2.67;;;3.90;99.90;;;;;;5038027;28;20190;-79
2022/01/20 06:50:00;;;;;;;16.23;2.67;;;3.90;99.90;;;;;;5056141;28;20192;-79
2022/01/20 06:52:27;;;;;;;21.03;2.63;;;4.00;99.90;;;;;;5038758;28;20215;-79
2022/01/20 06:54:53;;;;;;;10.87;2.17;;;3.90;99.90;;;;;;5057149;28;20213;-79
2022/01/20 06:57:19;;;;;;;10.70;2.43;;;3.90;99.90;;;;;;5039124;28;20188;-79
2022/01/20 06:59:45;;;;;;;16.30;2.87;;;3.90;99.90;;;;;;5056923;28;20199;-79
2022/01/20 07:02:10;;;;;;;19.00;2.77;;;3.90;99.90;;;;;;5039422;28;20183;-80
2022/01/20 07:04:38;;;;;;;11.20;2.10;;;3.90;99.90;;;;;;5039101;28;20233;-80
2022/01/20 07:07:04;;;;;;;6.87;2.00;;;3.90;99.90;;;;;;5056805;28;20179;-79
2022/01/20 07:09:30;;;;;;;27.67;3.47;;;3.90;99.90;;;;;;5038155;28;20219;-79
2022/01/20 07:11:55;;;;;;;12.43;2.20;;;3.80;99.90;;;;;;5038223;28;20212;-80
2022/01/20 07:14:21;;;;;;;12.17;2.37;;;3.90;99.90;;;;;;5039592;28;20199;-79
2022/01/20 07:16:48;;;;;;;13.13;2.97;;;3.90;99.90;;;;;;5057073;28;20176;-79
2022/01/20 07:19:14;;;;;;;13.80;2.53;;;3.90;99.90;;;;;;5039370;28;20198;-79
2022/01/20 07:21:40;;;;;;;15.40;2.57;;;3.90;99.90;;;;;;5039421;28;20179;-79
2022/01/20 07:24:07;;;;;;;12.70;2.87;;;3.90;99.90;;;;;;5039472;28;20190;-80
2022/01/20 07:26:33;;;;;;;19.20;3.47;;;4.00;99.90;;;;;;5038057;28;20183;-79
2022/01/20 07:28:58;;;;;;;10.93;2.57;;;4.00;99.90;;;;;;5039593;28;20191;-80
2022/01/20 07:31:24;;;;;;;24.53;2.80;;;4.00;99.90;;;;;;5057606;28;20730;-80
2022/01/20 07:33:50;;;;;;;14.97;3.73;;;4.00;99.90;;;;;;5057470;28;20230;-79
2022/01/20 07:36:16;;;;;;;17.30;2.97;;;4.00;99.90;;;;;;5057566;28;20230;-79
2022/01/20 07:38:42;;;;;;;15.27;2.67;;;3.90;99.90;;;;;;5058077;28;20206;-79
2022/01/20 07:41:08;;;;;;;19.27;3.43;;;3.90;99.90;;;;;;5059672;28;20199;-80
2022/01/20 07:43:34;;;;;;;17.90;3.13;;;3.90;99.90;;;;;;5058694;28;20645;-79
2022/01/20 07:45:59;;;;;;;18.20;3.37;;;3.90;99.90;;;;;;5057750;28;20671;-80
2022/01/20 07:48:25;;;;;;;12.20;3.60;;;3.90;99.90;;;;;;5057554;28;20183;-79
2022/01/20 07:50:50;;;;;;;17.17;3.73;;;3.90;99.90;;;;;;5057184;28;20215;-80
2022/01/20 07:53:16;;;;;;;18.20;3.00;;;3.90;99.90;;;;;;5057415;28;20172;-79
2022/01/20 07:55:41;;;;;;;17.97;3.07;;;3.90;99.90;;;;;;5056827;28;20184;-79
2022/01/20 07:58:07;;;;;;;13.80;2.90;;;3.90;99.90;;;;;;5038844;28;20192;-80
2022/01/20 08:00:32;;;;;;;20.23;4.17;;;3.90;99.90;;;;;;5057907;28;20708;-80
2022/01/20 08:02:58;;;;;;;15.03;2.97;;;3.90;99.90;;;;;;5059126;28;20205;-79
2022/01/20 08:05:24;;;;;;;17.23;3.40;;;3.90;99.90;;;;;;5057406;28;20179;-79
2022/01/20 08:07:49;;;;;;;13.17;2.87;;;4.00;99.90;;;;;;5057869;28;20554;-80
2022/01/20 08:10:15;;;;;;;13.67;2.70;;;4.00;99.90;;;;;;5040397;28;20249;-80
2022/01/20 08:12:43;;;;;;;14.33;3.00;;;4.00;99.90;;;;;;5060217;28;20176;-79
2022/01/20 08:15:10;;;;;;;20.03;3.27;;;4.00;99.90;;;;;;5056821;28;20172;-80
2022/01/20 08:17:37;;;;;;;12.30;2.63;;;3.90;99.90;;;;;;5057062;28;20168;-78
2022/01/20 08:20:03;;;;;;;20.57;2.93;;;3.90;99.90;;;;;;5056343;28;20196;-78
2022/01/20 08:22:33;;;;;;;16.33;2.73;;;3.90;99.90;;;;;;5056155;28;20209;-78
2022/01/20 08:25:00;;;;;;;29.07;4.03;;;3.90;99.90;;;;;;5058831;28;20552;-78
2022/01/20 08:27:25;;;;;;;13.40;2.67;;;3.90;99.90;;;;;;5043629;28;20649;-78
2022/01/20 08:29:51;;;;;;;21.03;3.00;;;3.90;99.90;;;;;;5063450;28;20199;-78
2022/01/20 08:32:16;;;;;;;15.83;3.40;;;3.90;99.90;;;;;;5062682;28;20195;-78
2022/01/20 08:34:42;;;;;;;13.50;2.57;;;3.90;99.90;;;;;;5060809;28;20210;-78
2022/01/20 08:37:07;;;;;;;22.20;3.10;;;4.00;99.90;;;;;;5054153;28;20242;-78
2022/01/20 08:42:03;;;;;;;14.67;3.03;;;4.00;99.90;;;;;;5054869;28;20192;-78
2022/01/20 08:44:29;;;;;;;17.63;3.17;;;4.00;99.90;;;;;;5054640;28;20184;-78
2022/01/20 08:46:57;;;;;;;14.80;2.53;;;4.00;99.90;;;;;;5055043;28;20209;-78
2022/01/20 08:49:23;;;;;;;17.20;2.67;;;4.00;99.90;;;;;;5036294;28;20657;-78
2022/01/20 08:51:48;;;;;;;12.17;3.17;;;4.00;99.90;;;;;;5035943;28;20207;-78
2022/01/20 08:54:14;;;;;;;16.57;2.40;;;4.10;99.90;;;;;;5053701;28;20232;-78
2022/01/20 08:56:40;;;;;;;12.97;2.20;;;4.10;99.90;;;;;;5036044;28;20533;-78
2022/01/20 08:59:07;;;;;;;11.07;2.20;;;4.20;99.90;;;;;;5053681;28;20175;-78
2022/01/20 09:01:34;;;;;;;14.97;2.90;;;4.20;99.90;;;;;;5053904;28;20657;-78
2022/01/20 09:04:00;;;;;;;15.17;2.53;;;4.30;99.90;;;;;;5036026;28;20192;-78
2022/01/20 09:06:25;;;;;;;8.73;2.27;;;4.30;99.90;;;;;;5054103;28;20191;-78
2022/01/20 09:08:51;;;;;;;6.90;1.90;;;4.30;99.90;;;;;;5053874;28;20184;-78
2022/01/20 09:11:19;;;;;;;10.47;2.03;;;4.30;99.90;;;;;;5053302;28;20242;-78
2022/01/20 09:16:30;;;;;;;7.97;1.43;;;4.30;99.90;;;;;;5053702;28;20214;-78
2022/01/20 09:18:56;;;;;;;11.10;1.97;;;4.40;99.90;;;;;;5053098;28;20175;-78
2022/01/20 09:21:23;;;;;;;9.70;1.83;;;4.30;99.90;;;;;;5052894;28;20206;-79
2022/01/20 09:23:49;;;;;;;12.07;2.20;;;4.30;99.90;;;;;;5035373;28;20253;-79
2022/01/20 09:26:15;;;;;;;6.80;2.47;;;4.30;99.90;;;;;;5035032;28;20190;-79
2022/01/20 09:28:41;;;;;;;8.80;2.10;;;4.30;99.90;;;;;;5035234;28;20188;-78
2022/01/20 09:31:07;;;;;;;16.60;3.17;;;4.30;99.90;;;;;;5035172;28;20219;-78
2022/01/20 09:33:33;;;;;;;11.17;2.13;;;4.30;99.90;;;;;;5035204;28;20183;-79
2022/01/20 09:35:59;;;;;;;12.90;2.83;;;4.30;99.90;;;;;;5053257;28;20238;-79
2022/01/20 09:38:26;;;;;;;7.80;1.83;;;4.30;99.90;;;;;;5052819;28;20175;-78
2022/01/20 09:40:52;;;;;;;15.03;2.70;;;4.40;99.90;;;;;;5052900;28;20196;-78
2022/01/20 09:43:18;;;;;;;9.20;2.20;;;4.30;99.90;;;;;;5036303;28;20202;-79
2022/01/20 09:45:49;;;;;;;15.27;3.10;;;4.30;99.90;;;;;;5035277;28;20195;-78
2022/01/20 09:48:15;;;;;;;8.83;2.30;;;4.30;99.90;;;;;;5053309;28;20226;-79
2022/01/20 09:50:41;;;;;;;8.87;2.77;;;4.30;99.90;;;;;;5037708;28;20311;-78
2022/01/20 09:53:07;;;;;;;12.40;2.53;;;4.20;99.90;;;;;;5038986;28;20274;-78
2022/01/20 09:55:34;;;;;;;13.67;2.17;;;4.20;99.90;;;;;;5040655;28;20180;-79
2022/01/20 09:58:00;;;;;;;11.60;2.13;;;4.20;99.90;;;;;;5058672;28;20254;-79
2022/01/20 10:00:26;;;;;;;10.37;2.30;;;4.20;99.90;;;;;;5057984;28;20238;-78
2022/01/20 10:03:01;;;;;;;13.27;2.23;;;4.20;99.90;;;;;;5039950;28;20241;-79
2022/01/20 10:05:36;;;;;;;18.27;2.57;;;4.30;99.90;;;;;;5039591;28;20175;-79
2022/01/20 10:08:14;;;;;;;9.77;2.97;;;4.40;99.90;;;;;;5057609;28;20160;-79
2022/01/20 10:10:55;;;;;;;9.53;2.13;;;4.40;99.90;;;;;;5038659;28;20270;-77
2022/01/20 10:13:30;;;;;;;11.70;2.60;;;4.40;99.90;;;;;;5056790;28;20178;-78
2022/01/20 10:16:09;;;;;;;11.47;2.47;;;4.40;99.90;;;;;;5038810;28;20179;-78
2022/01/20 10:19:08;;;;;;;6.90;2.23;;;4.40;99.90;;;;;;5039292;28;20207;-79
2022/01/20 10:21:36;;;;;;;7.73;1.70;;;4.40;99.90;;;;;;4996620;28;20187;-78
2022/01/20 10:24:07;;;;;;;11.43;1.67;;;4.40;99.90;;;;;;5057507;28;20241;-78
2022/01/20 10:26:34;;;;;;;13.90;2.33;;;4.40;99.90;;;;;;5056951;28;20176;-78
2022/01/20 10:29:02;;;;;;;7.83;2.00;;;4.50;99.90;;;;;;5057249;28;20171;-78
2022/01/20 10:31:33;;;;;;;11.60;1.63;;;4.50;99.90;;;;;;5056500;28;20269;-78
2022/01/20 10:33:59;;;;;;;10.20;2.23;;;4.50;99.90;;;;;;5056353;28;20172;-79
2022/01/20 10:36:25;;;;;;;12.93;2.97;;;4.50;99.90;;;;;;5037934;28;20188;-78
2022/01/20 10:38:53;;;;;;;13.33;2.10;;;4.50;99.90;;;;;;5055621;28;20263;-78
2022/01/20 10:41:56;;;;;;;14.37;2.37;;;4.40;99.90;;;;;;5037818;28;20253;-78
2022/01/20 10:44:21;;;;;;;10.57;2.27;;;4.40;99.90;;;;;;5028602;28;20183;-78
2022/01/20 10:46:50;;;;;;;16.03;2.40;;;4.40;99.90;;;;;;5038051;28;20338;-78
2022/01/20 10:49:16;;;;;;;10.63;2.03;;;4.50;99.90;;;;;;5038016;28;20194;-79
2022/01/20 10:51:43;;;;;;;7.90;2.17;;;4.50;99.90;;;;;;5055984;28;20573;-78
2022/01/20 10:54:13;;;;;;;12.03;2.87;;;4.50;99.90;;;;;;5038335;28;20223;-78
2022/01/20 10:56:57;;;;;;;11.93;1.90;;;4.50;99.90;;;;;;5056731;28;20200;-78
2022/01/20 10:59:24;;;;;;;13.97;1.93;;;4.50;99.90;;;;;;5038199;28;20183;-78
2022/01/20 11:02:00;;;;;;;14.17;2.20;;;4.50;99.90;;;;;;5057175;28;20179;-78
2022/01/20 11:04:28;;;;;;;8.37;2.13;;;4.50;99.90;;;;;;5038465;28;20273;-77
2022/01/20 11:06:56;;;;;;;13.47;2.43;;;4.50;99.90;;;;;;5037622;28;20274;-78
2022/01/20 11:09:23;;;;;;;9.03;1.80;;;4.50;99.90;;;;;;5055287;28;20337;-77
2022/01/20 11:11:50;;;;;;;15.03;2.20;;;4.50;99.90;;;;;;5055676;28;20222;-77
2022/01/20 11:14:16;;;;;;;9.17;1.90;;;4.50;99.90;;;;;;5055733;28;20579;-78
2022/01/20 11:16:42;;;;;;;11.83;2.27;;;4.50;99.90;;;;;;5056190;28;20270;-78
2022/01/20 11:19:19;;;;;;;12.03;2.20;;;4.40;99.90;;;;;;5038137;28;20179;-78
2022/01/20 11:21:46;;;;;;;4.40;1.57;;;4.40;99.90;;;;;;5056033;28;20536;-78
2022/01/20 11:24:23;;;;;;;9.77;1.87;;;4.50;99.90;;;;;;5037586;28;20680;-77
2022/01/20 11:26:54;;;;;;;11.43;2.43;;;4.50;99.90;;;;;;5037503;28;20187;-77
2022/01/20 11:29:22;;;;;;;6.47;1.70;;;4.60;99.90;;;;;;5055068;28;20321;-77
2022/01/20 11:31:49;;;;;;;14.87;2.30;;;4.60;99.90;;;;;;5054686;28;20261;-77
2022/01/20 11:34:17;;;;;;;7.67;2.30;;;4.60;99.90;;;;;;5037076;28;20187;-77
2022/01/20 11:36:43;;;;;;;10.27;2.30;;;4.60;99.90;;;;;;5055250;28;20582;-77
2022/01/20 11:39:09;;;;;;;14.73;2.43;;;4.60;99.90;;;;;;5036809;28;20208;-77
2022/01/20 11:41:39;;;;;;;6.47;1.43;;;4.50;99.90;;;;;;5054831;28;20720;-77
2022/01/20 11:44:12;;;;;;;9.00;2.00;;;4.50;99.90;;;;;;5054956;28;20160;-77
2022/01/20 11:46:41;;;;;;;13.33;2.40;;;4.60;99.90;;;;;;5036958;28;20191;-77
2022/01/20 11:49:09;;;;;;;9.43;1.93;;;4.60;99.90;;;;;;5037465;28;20213;-77
2022/01/20 11:51:59;;;;;;;10.80;1.93;;;4.60;99.90;;;;;;5061078;28;20200;-78
2022/01/20 11:54:31;;;;;;;9.97;2.27;;;4.60;99.90;;;;;;5058815;28;20251;-78
2022/01/20 11:57:30;;;;;;;7.50;2.10;;;4.70;99.90;;;;;;5057286;28;20167;-78
2022/01/20 12:00:15;;;;;;;6.90;2.10;;;4.70;99.90;;;;;;5056312;28;20207;-78
2022/01/20 12:02:40;;;;;;;10.20;2.20;;;4.70;99.90;;;;;;5055392;28;20167;-77
2022/01/20 12:05:26;;;;;;;10.30;2.37;;;4.70;99.90;;;;;;5055542;28;20192;-78
2022/01/20 12:08:10;;;;;;;7.80;2.23;;;4.70;99.90;;;;;;5054736;28;20156;-77
2022/01/20 12:10:36;;;;;;;14.23;2.40;;;4.70;99.90;;;;;;5036090;28;20233;-77
2022/01/20 12:13:06;;;;;;;14.60;2.23;;;4.80;99.90;;;;;;5035573;28;20184;-77
2022/01/20 12:15:32;;;;;;;12.80;2.97;;;4.80;99.90;;;;;;5036207;28;20645;-78
2022/01/20 12:17:58;;;;;;;13.43;2.40;;;4.80;99.90;;;;;;5054811;28;20194;-77
2022/01/20 12:20:24;;;;;;;14.83;2.33;;;4.80;99.90;;;;;;5054562;28;20226;-77
2022/01/20 12:22:51;;;;;;;7.93;1.83;;;4.80;99.90;;;;;;5054091;28;20184;-77
2022/01/20 12:25:20;;;;;;;12.27;2.00;;;4.80;99.90;;;;;;5054076;28;20234;-77
2022/01/20 12:27:47;;;;;;;9.83;2.27;;;4.80;99.90;;;;;;5053657;28;20255;-77
2022/01/20 12:30:21;;;;;;;13.13;2.40;;;4.80;99.90;;;;;;5053523;28;20286;-77
2022/01/20 12:33:07;;;;;;;7.47;2.60;;;4.80;99.90;;;;;;5053823;28;20651;-77
2022/01/20 12:35:46;;;;;;;9.60;2.30;;;4.80;99.90;;;;;;5035584;28;20540;-77
2022/01/20 12:38:18;;;;;;;12.07;3.67;;;4.70;99.90;;;;;;5035792;28;20179;-77
2022/01/20 12:40:47;;;;;;;10.90;2.27;;;4.60;99.90;;;;;;5036452;28;20214;-78
2022/01/20 12:43:14;;;;;;;10.83;2.27;;;4.60;99.90;;;;;;5054149;28;20183;-78
2022/01/20 12:45:57;;;;;;;19.10;2.27;;;4.60;99.90;;;;;;5055074;28;20186;-78
2022/01/20 12:48:22;;;;;;;11.70;2.40;;;4.60;99.90;;;;;;5037280;28;20180;-78
2022/01/20 12:50:52;;;;;;;12.13;2.73;;;4.50;99.90;;;;;;5054858;28;20360;-78
2022/01/20 12:53:18;;;;;;;15.23;2.63;;;4.50;99.90;;;;;;5055129;28;20266;-78
2022/01/20 12:55:53;;;;;;;4.83;1.77;;;4.30;99.90;;;;;;5036524;28;20671;-78
2022/01/20 12:58:19;;;;;;;5.47;1.83;;;4.00;99.90;;;;;;5054207;28;20175;-77
2022/01/20 13:00:44;;;;;;;4.57;2.27;;;3.60;99.90;;;;;;5053542;28;20203;-77
2022/01/20 13:03:10;;;;;;;7.80;2.30;;;3.00;99.90;;;;;;5037301;28;20558;-78
2022/01/20 13:05:41;;;;;;;5.00;2.17;;;2.80;99.90;;;;;;5055239;28;20692;-77
2022/01/20 13:08:06;;;;;;;5.17;1.77;;;2.50;99.90;;;;;;5056208;28;20622;-77
2022/01/20 13:10:34;;;;;;;5.57;2.50;;;2.40;99.90;;;;;;5054555;28;20219;-77
2022/01/20 13:13:05;;;;;;;7.43;3.50;;;2.40;99.90;;;;;;5037535;28;20237;-78
2022/01/20 13:15:32;;;;;;;7.63;2.70;;;2.40;99.90;;;;;;5056217;28;20170;-78
2022/01/20 13:18:04;;;;;;;7.17;3.00;;;2.30;99.90;;;;;;5037399;28;20270;-78
2022/01/20 13:20:31;;;;;;;10.87;3.50;;;2.30;99.90;;;;;;5055810;28;20198;-79
2022/01/20 13:23:09;;;;;;;6.40;2.00;;;2.40;99.90;;;;;;5058380;28;20275;-78
2022/01/20 13:25:39;;;;;;;5.97;2.13;;;2.40;99.90;;;;;;5061657;28;20625;-77
2022/01/20 13:28:07;;;;;;;3.80;1.77;;;2.40;99.90;;;;;;5043554;28;20190;-78
2022/01/20 13:30:40;;;;;;;3.27;1.07;;;2.50;99.90;;;;;;5043822;28;20224;-78
2022/01/20 13:33:18;;;;;;;3.73;1.50;;;2.50;99.90;;;;;;5059710;28;20198;-78
2022/01/20 13:35:46;;;;;;;7.03;1.67;;;2.70;99.90;;;;;;5058979;28;20486;-78
2022/01/20 13:38:12;;;;;;;8.27;1.93;;;2.70;99.90;;;;;;5058618;28;20176;-78
2022/01/20 13:40:43;;;;;;;6.10;1.60;;;2.80;99.90;;;;;;5057687;28;20350;-78
2022/01/20 13:46:06;;;;;;;8.00;1.77;;;3.00;99.90;;;;;;5058323;28;20241;-77
2022/01/20 13:48:33;;;;;;;6.30;1.40;;;3.00;99.90;;;;;;5057349;28;20191;-77
2022/01/20 13:51:03;;;;;;;4.50;2.00;;;3.00;99.90;;;;;;5056614;28;20209;-78
2022/01/20 13:53:31;;;;;;;8.17;1.50;;;3.20;99.90;;;;;;5039222;28;20219;-78
2022/01/20 13:56:00;;;;;;;10.27;2.20;;;3.30;99.90;;;;;;5057765;28;20187;-77
2022/01/20 13:58:28;;;;;;;9.53;2.03;;;3.40;99.90;;;;;;5039267;28;20222;-78
2022/01/20 14:00:56;;;;;;;6.27;1.50;;;3.50;99.90;;;;;;5043949;28;20309;-78
2022/01/20 14:03:23;;;;;;;8.67;1.77;;;3.60;99.90;;;;;;5041875;28;20633;-77